Huxford, AL (36543)

12:50 PM CDT on July 29, 2014 (GMT -0500)
B.E.C. (KALATMOR3) Elev 272 ft | 31.07 °N, 87.37 °W | Change Station

Current weather conditions updated 7 minutes ago

Partly Cloudy
Partly Cloudy
85.6 °F
Feels Like 88 °F
N
8.0
Wind Variable Wind from NW
Gusts 11.0 mph

Today is forecast to be Cooler than yesterday.

Today
High -- | Low -- °F
--% Chance of Precip.
Yesterday
High -- | Low -- °F
Precip. -- in
6:04 AM 7:47 PM
Waxing Crescent, 7% visible
Pressure 30.03 in
Visibility 10.0 miles
Clouds Few 5000 ft
Heat Index 88 °F
Dew Point 66 °F
Humidity 53%
Rainfall 0.00 in
Snow Depth Not available.
UV 12 out of 12
Pollen 4.00 out of 12
Air Quality Not available.
Flu Activity Not available.
METAR KGZH 291653Z AUTO VRB06KT 10SM FEW050 31/16 A3004 RMK AO2 SLP169 T03110161

More Conditions Fewer Conditions

Pressure 30.03 in
Visibility 10.0 miles
Clouds Few 5000 ft
Heat Index 88 °F
Dew Point 66 °F
Humidity 53%
Rainfall 0.00 in
Snow Depth Not available.
UV 12 out of 12
Pollen 4.00 out of 12
Air Quality Not available.
Flu Activity Not available.
METAR KGZH 291653Z AUTO VRB06KT 10SM FEW050 31/16 A3004 RMK AO2 SLP169 T03110161

More Conditions Fewer Conditions

10-Day Weather Forecast

Almanac

Astronomy

Jul. 29, 2014 Rise Set
Actual Time 6:04 AM CDT 7:47 PM CDT
Civil Twilight 5:38 AM CDT 8:13 PM CDT
Nautical Twilight 5:06 AM CDT 8:45 PM CDT
Astronomical Twilight 4:32 AM CDT 9:19 PM CDT
Moon 8:27 AM CDT 9:14 PM CDT
Length of Visible Light 14h 35m
Length of Day
13h 42m
Tomorrow will be 1m 21s shorter.
Waxing Crescent, 7% of the Moon is Illuminated
Today
Waxing Crescent
Aug 3
First Quarter
Aug 10
Full
Aug 17
Last Quarter
Aug 25
New

Today's Extremes

State Highs State Lows

Community

WunderPhotos

Upload Photos

1,738,803 photos uploaded!

WunderBlogs® & News

Nearby

Snow Depth

Station Depth Elevation
No new snow has been reported.

Earthquake Activity

City Distance Mag. Time & Date
No recent earthquake activity has been reported nearby.
Minimum magnitude displayed is 2.5.

Coastal Water Temperatures

Place Temperature
No Stations Reporting

Nearby Weather Stations

Station Location Temp. Heat Index Dew Point Humidity Wind Precip. Elev Updated Type
MesoWest PERDIDO RIV FARMS , Atmore, AL 80 °F 82 °F 66 °F 64% NNE  at  5 mph 0.00 in / hr 298 ft 11:00 AM CDT MADIS
B.E.C., Atmore, AL 85.6 °F 88 °F 66 °F 53% NW  at  8.0 mph 0.00 in / hr 272 ft 12:43 PM CDT Normal
HADS MONROEVILLE , Monroeville, AL 87 °F 90 °F 68 °F 53% NW  at  6 mph 0.00 in / hr 129 ft 11:30 AM CDT MADIS
South Century, Upton Rd area, Century, FL 88.0 °F 91 °F 66 °F 49% ENE  at  1.6 mph 0.00 in / hr 131 ft 12:44 PM CDT Normal
Perdue Hill, AL 86.6 °F 89 °F 67 °F 52% NE  at  4.0 mph 0.00 in / hr 70 ft 12:45 PM CDT Normal
HCN BREWTON 3 NNE AL , Brewton, AL 83 °F 81 °F - - North  at  - 0.00 in / hr 170 ft 11:40 AM CDT MADIS

Show More Stations Show Fewer Stations